sensor_id;sensor_type;location;lat;lon;timestamp;temperature;humidity
37896;DHT22;23733;53.254;10.430;2024-02-04T21:40:35;7.90;99.90
37896;DHT22;23733;53.254;10.430;2024-02-04T21:43:04;7.90;99.90
37896;DHT22;23733;53.254;10.430;2024-02-04T21:45:30;7.90;99.90
37896;DHT22;23733;53.254;10.430;2024-02-04T21:47:57;8.00;99.90
37896;DHT22;23733;53.254;10.430;2024-02-04T21:50:31;8.00;99.90
37896;DHT22;23733;53.254;10.430;2024-02-04T21:52:59;8.10;99.90
37896;DHT22;23733;53.254;10.430;2024-02-04T21:55:25;8.10;99.90
37896;DHT22;23733;53.254;10.430;2024-02-04T21:57:51;8.10;99.90
37896;DHT22;23733;53.254;10.430;2024-02-04T22:00:18;8.20;99.90
37896;DHT22;23733;53.254;10.430;2024-02-04T22:02:44;8.30;99.90
37896;DHT22;23733;53.254;10.430;2024-02-04T22:05:10;8.40;99.90
37896;DHT22;23733;53.254;10.430;2024-02-04T22:07:36;8.40;99.90
37896;DHT22;23733;53.254;10.430;2024-02-04T22:12:28;8.50;99.90
37896;DHT22;23733;53.254;10.430;2024-02-04T22:14:54;8.60;99.90
37896;DHT22;23733;53.254;10.430;2024-02-04T22:17:22;8.70;99.90
37896;DHT22;23733;53.254;10.430;2024-02-04T22:19:48;8.70;99.90
37896;DHT22;23733;53.254;10.430;2024-02-04T22:22:14;8.80;99.90
37896;DHT22;23733;53.254;10.430;2024-02-04T22:24:40;8.80;99.90
37896;DHT22;23733;53.254;10.430;2024-02-04T22:27:06;8.80;99.90
37896;DHT22;23733;53.254;10.430;2024-02-04T22:29:34;8.90;99.90
37896;DHT22;23733;53.254;10.430;2024-02-04T22:32:00;8.90;99.90
37896;DHT22;23733;53.254;10.430;2024-02-04T22:34:26;8.90;99.90
37896;DHT22;23733;53.254;10.430;2024-02-04T22:36:53;8.90;99.90
37896;DHT22;23733;53.254;10.430;2024-02-04T22:39:19;9.00;99.90
37896;DHT22;23733;53.254;10.430;2024-02-04T22:41:47;9.00;99.90
37896;DHT22;23733;53.254;10.430;2024-02-04T22:44:13;9.00;99.90
37896;DHT22;23733;53.254;10.430;2024-02-04T22:46:39;9.00;99.90
37896;DHT22;23733;53.254;10.430;2024-02-04T22:49:05;9.10;99.90
37896;DHT22;23733;53.254;10.430;2024-02-04T22:51:31;9.10;99.90
37896;DHT22;23733;53.254;10.430;2024-02-04T22:53:57;9.20;99.90
37896;DHT22;23733;53.254;10.430;2024-02-04T22:56:24;9.20;99.90
37896;DHT22;23733;53.254;10.430;2024-02-04T22:58:50;9.20;99.90
37896;DHT22;23733;53.254;10.430;2024-02-04T23:01:16;9.20;99.90
37896;DHT22;23733;53.254;10.430;2024-02-04T23:03:42;9.20;99.90
37896;DHT22;23733;53.254;10.430;2024-02-04T23:06:10;9.20;99.90
37896;DHT22;23733;53.254;10.430;2024-02-04T23:08:36;9.30;99.90
37896;DHT22;23733;53.254;10.430;2024-02-04T23:11:02;9.30;99.90
37896;DHT22;23733;53.254;10.430;2024-02-04T23:13:28;9.30;99.90
37896;DHT22;23733;53.254;10.430;2024-02-04T23:15:54;9.30;99.90
37896;DHT22;23733;53.254;10.430;2024-02-04T23:18:21;9.40;99.90
37896;DHT22;23733;53.254;10.430;2024-02-04T23:20:47;9.40;99.90
37896;DHT22;23733;53.254;10.430;2024-02-04T23:23:13;9.40;99.90
37896;DHT22;23733;53.254;10.430;2024-02-04T23:25:41;9.40;99.90
37896;DHT22;23733;53.254;10.430;2024-02-04T23:28:08;9.40;99.90
37896;DHT22;23733;53.254;10.430;2024-02-04T23:30:35;9.40;99.90
37896;DHT22;23733;53.254;10.430;2024-02-04T23:33:01;9.40;99.90
37896;DHT22;23733;53.254;10.430;2024-02-04T23:35:28;9.40;99.90
37896;DHT22;23733;53.254;10.430;2024-02-04T23:37:54;9.40;99.90
37896;DHT22;23733;53.254;10.430;2024-02-04T23:40:20;9.40;99.90
37896;DHT22;23733;53.254;10.430;2024-02-04T23:42:46;9.50;99.90
37896;DHT22;23733;53.254;10.430;2024-02-04T23:45:12;9.40;99.90
37896;DHT22;23733;53.254;10.430;2024-02-04T23:47:38;9.40;99.90
37896;DHT22;23733;53.254;10.430;2024-02-04T23:50:06;9.50;99.90
37896;DHT22;23733;53.254;10.430;2024-02-04T23:52:32;9.40;99.90
37896;DHT22;23733;53.254;10.430;2024-02-04T23:54:58;9.40;99.90
37896;DHT22;23733;53.254;10.430;2024-02-04T23:57:25;9.50;99.90
37896;DHT22;23733;53.254;10.430;2024-02-04T23:59:51;9.50;99.90
